Time,TemperatureF,DewpointF,PressureIn,WindDirection,WindDirectionDegrees,WindSpeedMPH,WindSpeedGustMPH,Humidity,HourlyPrecipIn,Conditions,Clouds,dailyrainin,SoftwareType,DateUTC
2013-03-09 00:02:00,29.0,28.0,-100.00,NNE,23,0.0,0.0,95,0.00,,,0.00,,2013-03-09 05:02:00,
2013-03-09 00:12:00,29.0,28.0,-100.00,NNE,23,0.0,0.0,95,0.00,,,0.00,,2013-03-09 05:12:00,
2013-03-09 00:22:00,29.0,28.0,-100.00,NNE,23,0.0,0.0,96,0.00,,,0.00,,2013-03-09 05:22:00,
2013-03-09 00:32:00,30.0,29.0,-100.00,NNE,23,0.0,0.0,96,0.00,,,0.00,,2013-03-09 05:32:00,
2013-03-09 00:42:00,30.0,29.0,-100.00,NNE,23,0.0,0.0,96,0.00,,,0.00,,2013-03-09 05:42:00,
2013-03-09 00:53:00,30.0,29.0,-100.00,NNE,23,0.0,0.0,96,0.00,,,0.00,,2013-03-09 05:53:00,
2013-03-09 01:02:00,30.0,29.0,-100.00,NNE,23,0.0,0.0,96,0.00,,,0.00,,2013-03-09 06:02:00,
2013-03-09 01:11:00,30.0,29.0,-100.00,NNE,23,0.0,0.0,97,0.00,,,0.00,,2013-03-09 06:11:00,
2013-03-09 01:22:00,30.0,29.0,-100.00,NNE,23,0.0,0.0,97,0.00,,,0.00,,2013-03-09 06:22:00,
2013-03-09 01:32:00,29.0,28.0,-100.00,NNE,23,0.0,0.0,97,0.00,,,0.00,,2013-03-09 06:32:00,
2013-03-09 01:42:00,29.0,28.0,-100.00,NNE,23,0.0,0.0,97,0.00,,,0.00,,2013-03-09 06:42:00,
2013-03-09 01:52:00,29.0,28.0,-100.00,NNE,23,0.0,0.0,97,0.00,,,0.00,,2013-03-09 06:52:00,
2013-03-09 02:01:00,29.0,29.0,-100.00,NNE,23,0.0,0.0,98,0.00,,,0.00,,2013-03-09 07:01:00,
2013-03-09 02:11:00,29.0,29.0,-100.00,NNE,23,0.0,0.0,98,0.00,,,0.00,,2013-03-09 07:11:00,
2013-03-09 02:21:00,29.0,29.0,-100.00,NNE,23,0.0,0.0,98,0.00,,,0.00,,2013-03-09 07:21:00,
2013-03-09 02:32:00,29.0,29.0,-100.00,NNE,23,0.0,0.0,98,0.00,,,0.00,,2013-03-09 07:32:00,
2013-03-09 02:42:00,29.0,29.0,-100.00,NNE,23,0.0,0.0,98,0.00,,,0.00,,2013-03-09 07:42:00,
2013-03-09 02:52:00,29.0,28.0,-100.00,NNE,23,0.0,0.0,97,0.00,,,0.00,,2013-03-09 07:52:00,
2013-03-09 03:01:00,29.0,28.0,-100.00,NNE,23,0.0,0.0,97,0.00,,,0.00,,2013-03-09 08:01:00,
2013-03-09 03:11:00,29.0,28.0,-100.00,NNE,23,0.0,0.0,97,0.00,,,0.00,,2013-03-09 08:11:00,
2013-03-09 03:22:00,29.0,28.0,-100.00,ESE,113,0.0,0.0,97,0.00,,,0.00,,2013-03-09 08:22:00,
2013-03-09 03:32:00,29.0,28.0,-100.00,SE,135,1.0,6.0,96,0.00,,,0.00,,2013-03-09 08:32:00,
2013-03-09 03:42:00,29.0,28.0,-100.00,SE,135,1.0,6.0,96,0.00,,,0.00,,2013-03-09 08:42:00,
2013-03-09 03:52:00,29.0,28.0,-100.00,SSE,158,0.0,0.0,96,0.00,,,0.00,,2013-03-09 08:52:00,
2013-03-09 04:02:00,29.0,28.0,-100.00,SSE,158,0.0,0.0,96,0.00,,,0.00,,2013-03-09 09:02:00,
2013-03-09 04:12:00,29.0,28.0,-100.00,SSE,158,0.0,0.0,96,0.00,,,0.00,,2013-03-09 09:12:00,
2013-03-09 04:21:00,29.0,28.0,-100.00,ESE,113,0.0,0.0,96,0.00,,,0.00,,2013-03-09 09:21:00,
2013-03-09 04:32:00,29.0,28.0,-100.00,East,90,0.0,0.0,96,0.00,,,0.00,,2013-03-09 09:32:00,
2013-03-09 04:42:00,29.0,28.0,-100.00,East,90,0.0,0.0,96,0.00,,,0.00,,2013-03-09 09:42:00,
2013-03-09 04:52:00,28.0,27.0,-100.00,South,180,0.0,0.0,96,0.00,,,0.00,,2013-03-09 09:52:00,
2013-03-09 05:01:00,29.0,28.0,-100.00,SE,135,0.0,0.0,96,0.00,,,0.00,,2013-03-09 10:01:00,
2013-03-09 05:11:00,29.0,28.0,-100.00,SE,135,0.0,0.0,96,0.00,,,0.00,,2013-03-09 10:11:00,
2013-03-09 05:21:00,29.0,28.0,-100.00,SE,135,0.0,0.0,97,0.00,,,0.00,,2013-03-09 10:21:00,
2013-03-09 05:31:00,28.0,27.0,-100.00,SE,135,0.0,0.0,97,0.00,,,0.00,,2013-03-09 10:31:00,
2013-03-09 05:42:00,28.0,27.0,-100.00,SE,135,0.0,0.0,97,0.00,,,0.00,,2013-03-09 10:42:00,
2013-03-09 05:52:00,28.0,27.0,-100.00,SE,135,0.0,0.0,97,0.00,,,0.00,,2013-03-09 10:52:00,
2013-03-09 06:01:00,28.0,27.0,-100.00,ESE,113,0.0,0.0,97,0.00,,,0.00,,2013-03-09 11:01:00,
2013-03-09 06:11:00,28.0,27.0,-100.00,ESE,113,0.0,0.0,97,0.00,,,0.00,,2013-03-09 11:11:00,
2013-03-09 06:21:00,29.0,28.0,-100.00,ESE,113,0.0,0.0,97,0.00,,,0.00,,2013-03-09 11:21:00,
2013-03-09 06:32:00,28.0,28.0,-100.00,ESE,113,0.0,0.0,98,0.00,,,0.00,,2013-03-09 11:32:00,
2013-03-09 06:42:00,28.0,28.0,-100.00,ESE,113,0.0,0.0,98,0.00,,,0.00,,2013-03-09 11:42:00,
2013-03-09 06:52:00,28.0,28.0,-100.00,ESE,113,0.0,0.0,98,0.00,,,0.00,,2013-03-09 11:52:00,
2013-03-09 07:01:00,28.0,28.0,-100.00,ESE,113,0.0,0.0,98,0.00,,,0.00,,2013-03-09 12:01:00,
2013-03-09 07:11:00,28.0,28.0,-100.00,ESE,113,0.0,0.0,98,0.00,,,0.00,,2013-03-09 12:11:00,
2013-03-09 07:21:00,28.0,28.0,-100.00,ESE,113,0.0,0.0,98,0.00,,,0.00,,2013-03-09 12:21:00,
2013-03-09 07:32:00,28.0,28.0,-100.00,ESE,113,0.0,0.0,98,0.00,,,0.00,,2013-03-09 12:32:00,
2013-03-09 07:42:00,28.0,28.0,-100.00,ESE,113,0.0,0.0,98,0.00,,,0.00,,2013-03-09 12:42:00,
2013-03-09 07:52:00,28.0,28.0,-100.00,ESE,113,0.0,0.0,98,0.00,,,0.00,,2013-03-09 12:52:00,
2013-03-09 08:02:00,29.0,29.0,-100.00,ESE,113,0.0,0.0,98,0.00,,,0.00,,2013-03-09 13:02:00,
2013-03-09 08:11:00,29.0,29.0,-100.00,ESE,113,0.0,0.0,98,0.00,,,0.00,,2013-03-09 13:11:00,
2013-03-09 08:21:00,29.0,29.0,-100.00,ESE,113,0.0,0.0,98,0.00,,,0.00,,2013-03-09 13:21:00,
2013-03-09 08:32:00,30.0,29.0,-100.00,SE,135,0.0,0.0,98,0.00,,,0.00,,2013-03-09 13:32:00,
2013-03-09 08:42:00,30.0,29.0,-100.00,SE,135,0.0,0.0,98,0.00,,,0.00,,2013-03-09 13:42:00,
2013-03-09 08:52:00,30.0,29.0,-100.00,SE,135,0.0,0.0,97,0.00,,,0.00,,2013-03-09 13:52:00,
2013-03-09 09:01:00,31.0,30.0,-100.00,SE,135,0.0,0.0,96,0.00,,,0.00,,2013-03-09 14:01:00,
2013-03-09 09:11:00,31.0,30.0,-100.00,SE,135,0.0,0.0,96,0.00,,,0.00,,2013-03-09 14:11:00,
2013-03-09 09:21:00,32.0,30.0,-100.00,ESE,113,0.0,0.0,94,0.00,,,0.00,,2013-03-09 14:21:00,
2013-03-09 09:32:00,34.0,32.0,-100.00,SSW,203,2.0,3.0,92,0.00,,,0.00,,2013-03-09 14:32:00,
2013-03-09 09:42:00,34.0,32.0,-100.00,SSW,203,2.0,3.0,92,0.00,,,0.00,,2013-03-09 14:42:00,
2013-03-09 09:52:00,35.0,32.0,-100.00,ESE,113,1.0,3.0,89,0.00,,,0.00,,2013-03-09 14:52:00,
2013-03-09 10:02:00,35.0,32.0,-100.00,SSE,158,7.0,7.0,87,0.00,,,0.00,,2013-03-09 15:02:00,
2013-03-09 10:12:00,35.0,32.0,-100.00,SSE,158,7.0,7.0,87,0.00,,,0.00,,2013-03-09 15:12:00,
2013-03-09 10:22:00,37.0,33.0,-100.00,SSE,158,8.0,13.0,85,0.00,,,0.00,,2013-03-09 15:22:00,
2013-03-09 10:32:00,37.0,33.0,-100.00,SSE,158,6.0,7.0,84,0.00,,,0.00,,2013-03-09 15:32:00,
2013-03-09 10:42:00,37.0,33.0,-100.00,SSE,158,6.0,7.0,84,0.00,,,0.00,,2013-03-09 15:42:00,
2013-03-09 10:52:00,38.0,32.0,-100.00,SSE,158,9.0,10.0,80,0.00,,,0.00,,2013-03-09 15:52:00,
2013-03-09 11:01:00,39.0,33.0,-100.00,SE,135,7.0,12.0,78,0.00,,,0.00,,2013-03-09 16:01:00,
2013-03-09 11:11:00,39.0,33.0,-100.00,SE,135,7.0,12.0,78,0.00,,,0.00,,2013-03-09 16:11:00,
2013-03-09 11:21:00,39.0,32.0,-100.00,SE,135,7.0,10.0,76,0.00,,,0.00,,2013-03-09 16:21:00,
2013-03-09 11:32:00,39.0,31.0,-100.00,SSE,158,8.0,10.0,74,0.00,,,0.00,,2013-03-09 16:32:00,
2013-03-09 11:42:00,39.0,31.0,-100.00,SSE,158,8.0,10.0,74,0.00,,,0.00,,2013-03-09 16:42:00,
2013-03-09 11:52:00,40.0,32.0,-100.00,ESE,113,5.0,9.0,72,0.00,,,0.00,,2013-03-09 16:52:00,
2013-03-09 12:01:00,40.0,31.0,-100.00,South,180,6.0,9.0,70,0.00,,,0.00,,2013-03-09 17:01:00,
2013-03-09 12:11:00,40.0,31.0,-100.00,South,180,6.0,9.0,70,0.00,,,0.00,,2013-03-09 17:11:00,
2013-03-09 12:22:00,40.0,31.0,-100.00,SE,135,3.0,9.0,71,0.00,,,0.00,,2013-03-09 17:22:00,
2013-03-09 12:32:00,41.0,32.0,-100.00,ESE,113,6.0,9.0,69,0.00,,,0.00,,2013-03-09 17:32:00,
2013-03-09 12:42:00,41.0,32.0,-100.00,ESE,113,6.0,9.0,69,0.00,,,0.00,,2013-03-09 17:42:00,
2013-03-09 12:52:00,41.0,31.0,-100.00,SSE,158,8.0,9.0,68,0.00,,,0.00,,2013-03-09 17:52:00,
2013-03-09 13:02:00,42.0,32.0,-100.00,SE,135,5.0,6.0,67,0.00,,,0.00,,2013-03-09 18:02:00,
2013-03-09 13:11:00,42.0,32.0,-100.00,SE,135,5.0,6.0,67,0.00,,,0.00,,2013-03-09 18:11:00,
2013-03-09 13:21:00,43.0,32.0,-100.00,SE,135,6.0,10.0,65,0.00,,,0.00,,2013-03-09 18:21:00,
2013-03-09 13:32:00,43.0,31.0,-100.00,SE,135,6.0,8.0,63,0.00,,,0.00,,2013-03-09 18:32:00,
2013-03-09 13:42:00,43.0,31.0,-100.00,SE,135,6.0,8.0,63,0.00,,,0.00,,2013-03-09 18:42:00,
2013-03-09 13:52:00,44.0,32.0,-100.00,SSE,158,9.0,10.0,63,0.00,,,0.00,,2013-03-09 18:52:00,
2013-03-09 14:01:00,44.0,32.0,-100.00,SE,135,6.0,10.0,63,0.00,,,0.00,,2013-03-09 19:01:00,
2013-03-09 14:12:00,44.0,32.0,-100.00,SE,135,6.0,10.0,63,0.00,,,0.00,,2013-03-09 19:12:00,
2013-03-09 14:22:00,44.0,32.0,-100.00,ESE,113,7.0,10.0,63,0.00,,,0.00,,2013-03-09 19:22:00,
2013-03-09 14:32:00,44.0,32.0,-100.00,ESE,113,7.0,10.0,63,0.00,,,0.00,,2013-03-09 19:32:00,
2013-03-09 14:42:00,44.0,32.0,-100.00,ESE,113,7.0,10.0,63,0.00,,,0.00,,2013-03-09 19:42:00,
2013-03-09 14:52:00,45.0,33.0,-100.00,ESE,113,2.0,5.0,62,0.00,,,0.00,,2013-03-09 19:52:00,
2013-03-09 15:01:00,45.0,32.0,-100.00,ESE,113,6.0,9.0,61,0.00,,,0.00,,2013-03-09 20:01:00,
2013-03-09 15:11:00,45.0,32.0,-100.00,ESE,113,6.0,9.0,61,0.00,,,0.00,,2013-03-09 20:11:00,
2013-03-09 15:22:00,45.0,32.0,-100.00,SSE,158,7.0,9.0,61,0.00,,,0.00,,2013-03-09 20:22:00,
2013-03-09 15:32:00,45.0,33.0,-100.00,ESE,113,5.0,8.0,62,0.00,,,0.00,,2013-03-09 20:32:00,
2013-03-09 15:42:00,45.0,33.0,-100.00,ESE,113,5.0,8.0,62,0.00,,,0.00,,2013-03-09 20:42:00,
2013-03-09 15:52:00,44.0,31.0,-100.00,SSE,158,7.0,10.0,61,0.00,,,0.00,,2013-03-09 20:52:00,
2013-03-09 16:02:00,44.0,32.0,-100.00,ESE,113,3.0,7.0,63,0.00,,,0.00,,2013-03-09 21:02:00,
2013-03-09 16:12:00,44.0,32.0,-100.00,ESE,113,3.0,7.0,63,0.00,,,0.00,,2013-03-09 21:12:00,
2013-03-09 16:22:00,44.0,32.0,-100.00,East,90,5.0,6.0,62,0.00,,,0.00,,2013-03-09 21:22:00,
2013-03-09 16:32:00,43.0,31.0,-100.00,ESE,113,6.0,8.0,62,0.00,,,0.00,,2013-03-09 21:32:00,
2013-03-09 16:42:00,43.0,31.0,-100.00,ESE,113,6.0,8.0,62,0.00,,,0.00,,2013-03-09 21:42:00,
2013-03-09 16:52:00,43.0,31.0,-100.00,ESE,113,3.0,5.0,63,0.00,,,0.00,,2013-03-09 21:52:00,
2013-03-09 17:01:00,43.0,31.0,-100.00,East,90,3.0,6.0,62,0.00,,,0.00,,2013-03-09 22:01:00,
2013-03-09 17:11:00,43.0,31.0,-100.00,East,90,3.0,6.0,62,0.00,,,0.00,,2013-03-09 22:11:00,
2013-03-09 17:21:00,43.0,31.0,-100.00,East,90,5.0,7.0,62,0.00,,,0.00,,2013-03-09 22:21:00,
2013-03-09 17:32:00,43.0,31.0,-100.00,SSE,158,5.0,6.0,63,0.00,,,0.00,,2013-03-09 22:32:00,
2013-03-09 17:42:00,43.0,31.0,-100.00,SSE,158,5.0,6.0,63,0.00,,,0.00,,2013-03-09 22:42:00,
2013-03-09 17:52:00,43.0,31.0,-100.00,SE,135,6.0,9.0,63,0.00,,,0.00,,2013-03-09 22:52:00,
2013-03-09 18:01:00,43.0,32.0,-100.00,SSE,158,3.0,9.0,64,0.00,,,0.00,,2013-03-09 23:01:00,
2013-03-09 18:11:00,43.0,32.0,-100.00,SSE,158,3.0,9.0,64,0.00,,,0.00,,2013-03-09 23:11:00,
2013-03-09 18:22:00,42.0,31.0,-100.00,ESE,113,5.0,7.0,65,0.00,,,0.00,,2013-03-09 23:22:00,
2013-03-09 18:32:00,42.0,32.0,-100.00,East,90,2.0,6.0,67,0.00,,,0.00,,2013-03-09 23:32:00,
2013-03-09 18:42:00,42.0,32.0,-100.00,East,90,2.0,6.0,67,0.00,,,0.00,,2013-03-09 23:42:00,
2013-03-09 18:52:00,42.0,32.0,-100.00,ESE,113,5.0,12.0,68,0.00,,,0.00,,2013-03-09 23:52:00,
2013-03-09 19:01:00,41.0,32.0,-100.00,ESE,113,5.0,8.0,69,0.00,,,0.00,,2013-03-10 00:01:00,
2013-03-09 19:11:00,41.0,32.0,-100.00,ESE,113,5.0,8.0,69,0.00,,,0.00,,2013-03-10 00:11:00,
2013-03-09 19:22:00,41.0,33.0,-100.00,East,90,5.0,7.0,73,0.00,,,0.00,,2013-03-10 00:22:00,
2013-03-09 19:32:00,40.0,33.0,-100.00,East,90,6.0,8.0,76,0.00,,,0.00,,2013-03-10 00:32:00,
2013-03-09 19:42:00,40.0,33.0,-100.00,East,90,6.0,8.0,76,0.00,,,0.00,,2013-03-10 00:42:00,
2013-03-09 19:52:00,39.0,33.0,-100.00,ESE,113,7.0,8.0,78,0.00,,,0.00,,2013-03-10 00:52:00,
2013-03-09 20:01:00,39.0,33.0,-100.00,ESE,113,6.0,8.0,79,0.00,,,0.00,,2013-03-10 01:01:00,
2013-03-09 20:11:00,39.0,33.0,-100.00,ESE,113,6.0,8.0,79,0.00,,,0.00,,2013-03-10 01:11:00,
2013-03-09 20:21:00,39.0,34.0,-100.00,East,90,3.0,5.0,82,0.00,,,0.00,,2013-03-10 01:21:00,
2013-03-09 20:32:00,38.0,33.0,-100.00,ESE,113,2.0,7.0,82,0.00,,,0.00,,2013-03-10 01:32:00,
2013-03-09 20:42:00,38.0,33.0,-100.00,ESE,113,2.0,7.0,82,0.00,,,0.00,,2013-03-10 01:42:00,
2013-03-09 20:52:00,38.0,33.0,-100.00,SE,135,0.0,0.0,83,0.00,,,0.00,,2013-03-10 01:52:00,
2013-03-09 21:01:00,39.0,34.0,-100.00,ESE,113,0.0,5.0,83,0.00,,,0.00,,2013-03-10 02:01:00,
2013-03-09 21:11:00,39.0,34.0,-100.00,ESE,113,0.0,5.0,83,0.00,,,0.00,,2013-03-10 02:11:00,
2013-03-09 21:22:00,39.0,34.0,-100.00,ESE,113,5.0,6.0,82,0.00,,,0.00,,2013-03-10 02:22:00,
2013-03-09 21:32:00,39.0,34.0,-100.00,ESE,113,5.0,6.0,82,0.00,,,0.00,,2013-03-10 02:32:00,
2013-03-09 21:42:00,39.0,34.0,-100.00,ESE,113,5.0,6.0,82,0.00,,,0.00,,2013-03-10 02:42:00,
2013-03-09 21:52:00,39.0,34.0,-100.00,East,90,3.0,6.0,81,0.00,,,0.00,,2013-03-10 02:52:00,
2013-03-09 22:02:00,39.0,34.0,-100.00,ESE,113,2.0,6.0,82,0.00,,,0.00,,2013-03-10 03:02:00,
2013-03-09 22:11:00,38.0,33.0,-100.00,East,90,5.0,8.0,82,0.00,,,0.00,,2013-03-10 03:11:00,
2013-03-09 22:22:00,38.0,33.0,-100.00,East,90,5.0,8.0,82,0.00,,,0.00,,2013-03-10 03:22:00,
2013-03-09 22:32:00,38.0,33.0,-100.00,ESE,113,7.0,9.0,83,0.00,,,0.00,,2013-03-10 03:32:00,
2013-03-09 22:42:00,38.0,34.0,-100.00,East,90,1.0,9.0,85,0.00,,,0.00,,2013-03-10 03:42:00,
2013-03-09 22:52:00,38.0,34.0,-100.00,East,90,1.0,9.0,85,0.00,,,0.00,,2013-03-10 03:52:00,
2013-03-09 23:01:00,38.0,35.0,-100.00,SE,135,5.0,7.0,88,0.00,,,0.00,,2013-03-10 04:01:00,
2013-03-09 23:11:00,38.0,35.0,-100.00,ESE,113,1.0,6.0,90,0.00,,,0.00,,2013-03-10 04:11:00,
2013-03-09 23:21:00,38.0,35.0,-100.00,ESE,113,1.0,6.0,90,0.00,,,0.00,,2013-03-10 04:21:00,
2013-03-09 23:32:00,38.0,35.0,-100.00,ESE,113,1.0,6.0,90,0.00,,,0.00,,2013-03-10 04:32:00,
2013-03-09 23:42:00,38.0,35.0,-100.00,ESE,113,1.0,6.0,90,0.00,,,0.00,,2013-03-10 04:42:00,
2013-03-09 23:52:00,39.0,36.0,-100.00,SSE,158,3.0,6.0,88,0.00,,,0.00,,2013-03-10 04:52:00,